sensor_id;sensor_type;location;lat;lon;timestamp;P1;durP1;ratioP1;P2;durP2;ratioP2
5890;SDS011;2971;52.420;7.080;2023-03-01T00:02:03;32.23;;;21.07;;
5890;SDS011;2971;52.420;7.080;2023-03-01T00:04:29;29.17;;;19.80;;
5890;SDS011;2971;52.420;7.080;2023-03-01T00:06:55;31.50;;;21.53;;
5890;SDS011;2971;52.420;7.080;2023-03-01T00:09:21;28.90;;;19.80;;
5890;SDS011;2971;52.420;7.080;2023-03-01T00:11:46;34.57;;;20.80;;
5890;SDS011;2971;52.420;7.080;2023-03-01T00:14:12;27.53;;;19.60;;
5890;SDS011;2971;52.420;7.080;2023-03-01T00:16:38;26.10;;;18.70;;
5890;SDS011;2971;52.420;7.080;2023-03-01T00:19:05;29.97;;;20.30;;
5890;SDS011;2971;52.420;7.080;2023-03-01T00:21:32;27.10;;;19.13;;
5890;SDS011;2971;52.420;7.080;2023-03-01T00:23:58;26.17;;;18.67;;
5890;SDS011;2971;52.420;7.080;2023-03-01T00:26:24;29.93;;;20.03;;
5890;SDS011;2971;52.420;7.080;2023-03-01T00:28:51;26.47;;;19.37;;
5890;SDS011;2971;52.420;7.080;2023-03-01T00:31:17;29.37;;;19.97;;
5890;SDS011;2971;52.420;7.080;2023-03-01T00:33:46;26.30;;;18.77;;
5890;SDS011;2971;52.420;7.080;2023-03-01T00:36:13;28.17;;;19.43;;
5890;SDS011;2971;52.420;7.080;2023-03-01T00:38:40;27.83;;;19.47;;
5890;SDS011;2971;52.420;7.080;2023-03-01T00:41:10;25.77;;;19.03;;
5890;SDS011;2971;52.420;7.080;2023-03-01T00:43:37;27.67;;;19.47;;
5890;SDS011;2971;52.420;7.080;2023-03-01T00:46:07;30.20;;;20.20;;
5890;SDS011;2971;52.420;7.080;2023-03-01T00:48:34;29.57;;;20.30;;
5890;SDS011;2971;52.420;7.080;2023-03-01T00:51:07;23.80;;;17.20;;
5890;SDS011;2971;52.420;7.080;2023-03-01T00:53:36;28.07;;;17.13;;
5890;SDS011;2971;52.420;7.080;2023-03-01T00:56:02;25.97;;;18.17;;
5890;SDS011;2971;52.420;7.080;2023-03-01T00:58:29;26.50;;;18.27;;
5890;SDS011;2971;52.420;7.080;2023-03-01T01:00:54;25.73;;;17.80;;
5890;SDS011;2971;52.420;7.080;2023-03-01T01:03:20;30.20;;;19.40;;
5890;SDS011;2971;52.420;7.080;2023-03-01T01:05:45;29.03;;;18.10;;
5890;SDS011;2971;52.420;7.080;2023-03-01T01:08:11;21.73;;;15.87;;
5890;SDS011;2971;52.420;7.080;2023-03-01T01:10:36;26.93;;;18.37;;
5890;SDS011;2971;52.420;7.080;2023-03-01T01:13:02;31.77;;;19.50;;
5890;SDS011;2971;52.420;7.080;2023-03-01T01:15:28;29.43;;;18.57;;
5890;SDS011;2971;52.420;7.080;2023-03-01T01:17:54;28.33;;;17.70;;
5890;SDS011;2971;52.420;7.080;2023-03-01T01:20:19;35.33;;;20.47;;
5890;SDS011;2971;52.420;7.080;2023-03-01T01:22:45;31.67;;;20.10;;
5890;SDS011;2971;52.420;7.080;2023-03-01T01:25:10;33.50;;;19.73;;
5890;SDS011;2971;52.420;7.080;2023-03-01T01:27:36;29.23;;;19.00;;
5890;SDS011;2971;52.420;7.080;2023-03-01T01:30:03;32.20;;;19.97;;
5890;SDS011;2971;52.420;7.080;2023-03-01T01:32:29;30.27;;;18.70;;
5890;SDS011;2971;52.420;7.080;2023-03-01T01:34:55;27.93;;;18.30;;
5890;SDS011;2971;52.420;7.080;2023-03-01T01:37:20;26.23;;;17.00;;
5890;SDS011;2971;52.420;7.080;2023-03-01T01:39:46;31.57;;;16.93;;
5890;SDS011;2971;52.420;7.080;2023-03-01T01:42:17;31.37;;;17.93;;
5890;SDS011;2971;52.420;7.080;2023-03-01T01:44:46;30.73;;;18.17;;
5890;SDS011;2971;52.420;7.080;2023-03-01T01:47:12;23.90;;;15.53;;
5890;SDS011;2971;52.420;7.080;2023-03-01T01:49:44;23.57;;;14.37;;
5890;SDS011;2971;52.420;7.080;2023-03-01T01:52:20;21.57;;;15.67;;
5890;SDS011;2971;52.420;7.080;2023-03-01T01:57:29;22.50;;;14.53;;
5890;SDS011;2971;52.420;7.080;2023-03-01T02:00:09;21.30;;;13.93;;
5890;SDS011;2971;52.420;7.080;2023-03-01T02:02:45;20.67;;;14.50;;
5890;SDS011;2971;52.420;7.080;2023-03-01T02:05:19;21.00;;;13.93;;
5890;SDS011;2971;52.420;7.080;2023-03-01T02:07:47;18.90;;;13.77;;
5890;SDS011;2971;52.420;7.080;2023-03-01T02:10:13;19.80;;;13.77;;
5890;SDS011;2971;52.420;7.080;2023-03-01T02:12:39;21.80;;;14.00;;
5890;SDS011;2971;52.420;7.080;2023-03-01T02:15:05;22.97;;;15.20;;
5890;SDS011;2971;52.420;7.080;2023-03-01T02:17:30;20.83;;;13.87;;
5890;SDS011;2971;52.420;7.080;2023-03-01T02:20:20;25.03;;;15.73;;
5890;SDS011;2971;52.420;7.080;2023-03-01T02:22:45;20.13;;;13.80;;
5890;SDS011;2971;52.420;7.080;2023-03-01T02:30:14;18.73;;;13.00;;
5890;SDS011;2971;52.420;7.080;2023-03-01T02:32:40;16.13;;;13.13;;
5890;SDS011;2971;52.420;7.080;2023-03-01T02:35:08;16.00;;;12.50;;
5890;SDS011;2971;52.420;7.080;2023-03-01T02:37:35;15.73;;;11.80;;
5890;SDS011;2971;52.420;7.080;2023-03-01T02:40:03;17.40;;;12.93;;
5890;SDS011;2971;52.420;7.080;2023-03-01T02:42:36;18.23;;;13.33;;
5890;SDS011;2971;52.420;7.080;2023-03-01T02:45:06;27.77;;;17.07;;
5890;SDS011;2971;52.420;7.080;2023-03-01T02:47:32;37.63;;;19.23;;
5890;SDS011;2971;52.420;7.080;2023-03-01T02:49:57;34.37;;;18.23;;
5890;SDS011;2971;52.420;7.080;2023-03-01T02:55:42;26.77;;;15.47;;
5890;SDS011;2971;52.420;7.080;2023-03-01T02:58:07;26.40;;;15.90;;
5890;SDS011;2971;52.420;7.080;2023-03-01T03:00:37;28.67;;;16.23;;
5890;SDS011;2971;52.420;7.080;2023-03-01T03:03:05;27.10;;;15.10;;
5890;SDS011;2971;52.420;7.080;2023-03-01T03:05:31;25.90;;;15.60;;
5890;SDS011;2971;52.420;7.080;2023-03-01T03:07:57;23.10;;;14.70;;
5890;SDS011;2971;52.420;7.080;2023-03-01T03:10:28;24.30;;;14.63;;
5890;SDS011;2971;52.420;7.080;2023-03-01T03:12:56;23.67;;;13.63;;
5890;SDS011;2971;52.420;7.080;2023-03-01T03:15:23;20.53;;;13.10;;
5890;SDS011;2971;52.420;7.080;2023-03-01T03:17:49;18.17;;;12.30;;
5890;SDS011;2971;52.420;7.080;2023-03-01T03:20:16;18.23;;;11.23;;
5890;SDS011;2971;52.420;7.080;2023-03-01T03:22:46;19.97;;;12.83;;
5890;SDS011;2971;52.420;7.080;2023-03-01T03:25:13;17.33;;;12.47;;
5890;SDS011;2971;52.420;7.080;2023-03-01T03:27:39;18.40;;;12.50;;
5890;SDS011;2971;52.420;7.080;2023-03-01T03:30:09;20.60;;;11.43;;
5890;SDS011;2971;52.420;7.080;2023-03-01T03:32:44;16.00;;;11.40;;
5890;SDS011;2971;52.420;7.080;2023-03-01T03:35:29;17.73;;;10.97;;
5890;SDS011;2971;52.420;7.080;2023-03-01T03:37:57;16.67;;;11.67;;
5890;SDS011;2971;52.420;7.080;2023-03-01T03:40:38;15.40;;;11.27;;
5890;SDS011;2971;52.420;7.080;2023-03-01T03:43:05;16.37;;;11.90;;
5890;SDS011;2971;52.420;7.080;2023-03-01T03:45:32;19.57;;;12.00;;
5890;SDS011;2971;52.420;7.080;2023-03-01T03:47:58;16.30;;;11.70;;
5890;SDS011;2971;52.420;7.080;2023-03-01T03:50:25;18.60;;;12.00;;
5890;SDS011;2971;52.420;7.080;2023-03-01T03:52:50;17.07;;;11.50;;
5890;SDS011;2971;52.420;7.080;2023-03-01T03:55:15;15.47;;;11.50;;
5890;SDS011;2971;52.420;7.080;2023-03-01T03:57:45;15.03;;;11.43;;
5890;SDS011;2971;52.420;7.080;2023-03-01T04:00:16;16.87;;;12.23;;
5890;SDS011;2971;52.420;7.080;2023-03-01T04:02:43;15.43;;;11.90;;
5890;SDS011;2971;52.420;7.080;2023-03-01T04:05:10;15.27;;;11.67;;
5890;SDS011;2971;52.420;7.080;2023-03-01T04:07:36;16.20;;;12.03;;
5890;SDS011;2971;52.420;7.080;2023-03-01T04:10:03;16.03;;;11.63;;
5890;SDS011;2971;52.420;7.080;2023-03-01T04:12:29;15.20;;;11.07;;
5890;SDS011;2971;52.420;7.080;2023-03-01T04:14:55;14.17;;;10.87;;
5890;SDS011;2971;52.420;7.080;2023-03-01T04:17:20;16.47;;;12.30;;
5890;SDS011;2971;52.420;7.080;2023-03-01T04:19:45;16.23;;;11.80;;
5890;SDS011;2971;52.420;7.080;2023-03-01T04:22:13;16.23;;;12.10;;
5890;SDS011;2971;52.420;7.080;2023-03-01T04:24:42;14.07;;;10.97;;
5890;SDS011;2971;52.420;7.080;2023-03-01T04:27:08;16.20;;;11.30;;
5890;SDS011;2971;52.420;7.080;2023-03-01T04:29:34;15.00;;;11.33;;
5890;SDS011;2971;52.420;7.080;2023-03-01T04:31:59;14.77;;;11.10;;
5890;SDS011;2971;52.420;7.080;2023-03-01T04:34:24;16.03;;;11.50;;
5890;SDS011;2971;52.420;7.080;2023-03-01T04:36:52;18.00;;;11.53;;
5890;SDS011;2971;52.420;7.080;2023-03-01T04:39:17;15.67;;;11.67;;
5890;SDS011;2971;52.420;7.080;2023-03-01T04:41:43;14.67;;;11.30;;
5890;SDS011;2971;52.420;7.080;2023-03-01T04:44:08;13.53;;;10.87;;
5890;SDS011;2971;52.420;7.080;2023-03-01T04:46:34;15.00;;;11.20;;
5890;SDS011;2971;52.420;7.080;2023-03-01T04:49:00;16.00;;;11.57;;
5890;SDS011;2971;52.420;7.080;2023-03-01T04:51:25;15.17;;;10.73;;
5890;SDS011;2971;52.420;7.080;2023-03-01T04:53:51;18.43;;;11.20;;
5890;SDS011;2971;52.420;7.080;2023-03-01T04:56:16;14.93;;;9.73;;
5890;SDS011;2971;52.420;7.080;2023-03-01T04:58:45;14.43;;;10.07;;
5890;SDS011;2971;52.420;7.080;2023-03-01T05:01:20;15.97;;;10.33;;
5890;SDS011;2971;52.420;7.080;2023-03-01T05:03:46;15.77;;;11.00;;
5890;SDS011;2971;52.420;7.080;2023-03-01T05:06:14;15.33;;;10.00;;
5890;SDS011;2971;52.420;7.080;2023-03-01T05:08:40;15.47;;;11.67;;
5890;SDS011;2971;52.420;7.080;2023-03-01T05:11:06;14.83;;;10.83;;
5890;SDS011;2971;52.420;7.080;2023-03-01T05:13:34;16.50;;;10.33;;
5890;SDS011;2971;52.420;7.080;2023-03-01T05:16:00;15.20;;;11.60;;
5890;SDS011;2971;52.420;7.080;2023-03-01T05:18:27;13.20;;;10.90;;
5890;SDS011;2971;52.420;7.080;2023-03-01T05:20:53;15.87;;;11.40;;
5890;SDS011;2971;52.420;7.080;2023-03-01T05:23:21;17.00;;;10.60;;
5890;SDS011;2971;52.420;7.080;2023-03-01T05:25:47;17.43;;;12.07;;
5890;SDS011;2971;52.420;7.080;2023-03-01T05:28:14;24.93;;;14.30;;
5890;SDS011;2971;52.420;7.080;2023-03-01T05:30:39;23.47;;;15.07;;
5890;SDS011;2971;52.420;7.080;2023-03-01T05:33:05;21.80;;;13.43;;
5890;SDS011;2971;52.420;7.080;2023-03-01T05:35:35;22.67;;;14.17;;
5890;SDS011;2971;52.420;7.080;2023-03-01T05:38:01;21.10;;;12.90;;
5890;SDS011;2971;52.420;7.080;2023-03-01T05:40:26;19.07;;;13.63;;
5890;SDS011;2971;52.420;7.080;2023-03-01T05:42:52;20.50;;;13.07;;
5890;SDS011;2971;52.420;7.080;2023-03-01T05:45:22;21.30;;;12.40;;
5890;SDS011;2971;52.420;7.080;2023-03-01T05:47:49;21.17;;;12.50;;
5890;SDS011;2971;52.420;7.080;2023-03-01T05:50:19;20.77;;;13.27;;
5890;SDS011;2971;52.420;7.080;2023-03-01T05:52:49;23.67;;;12.63;;
5890;SDS011;2971;52.420;7.080;2023-03-01T05:55:19;18.13;;;11.73;;
5890;SDS011;2971;52.420;7.080;2023-03-01T05:57:45;19.77;;;12.33;;
5890;SDS011;2971;52.420;7.080;2023-03-01T06:00:11;19.43;;;12.07;;
5890;SDS011;2971;52.420;7.080;2023-03-01T06:02:38;17.70;;;11.40;;
5890;SDS011;2971;52.420;7.080;2023-03-01T06:05:07;17.97;;;11.83;;
5890;SDS011;2971;52.420;7.080;2023-03-01T06:07:34;19.20;;;12.67;;
5890;SDS011;2971;52.420;7.080;2023-03-01T06:10:00;18.30;;;11.73;;
5890;SDS011;2971;52.420;7.080;2023-03-01T06:12:25;16.83;;;12.27;;
5890;SDS011;2971;52.420;7.080;2023-03-01T06:14:51;18.20;;;12.80;;
5890;SDS011;2971;52.420;7.080;2023-03-01T06:17:16;16.43;;;12.13;;
5890;SDS011;2971;52.420;7.080;2023-03-01T06:19:41;16.10;;;11.40;;
5890;SDS011;2971;52.420;7.080;2023-03-01T06:22:07;17.70;;;12.73;;
5890;SDS011;2971;52.420;7.080;2023-03-01T06:24:33;18.33;;;11.90;;
5890;SDS011;2971;52.420;7.080;2023-03-01T06:26:59;18.07;;;11.70;;
5890;SDS011;2971;52.420;7.080;2023-03-01T06:29:24;18.33;;;11.93;;
5890;SDS011;2971;52.420;7.080;2023-03-01T06:31:49;21.23;;;12.17;;
5890;SDS011;2971;52.420;7.080;2023-03-01T06:34:15;19.70;;;12.77;;
5890;SDS011;2971;52.420;7.080;2023-03-01T06:36:40;19.40;;;13.20;;
5890;SDS011;2971;52.420;7.080;2023-03-01T06:39:06;19.10;;;13.57;;
5890;SDS011;2971;52.420;7.080;2023-03-01T06:41:32;20.53;;;14.53;;
5890;SDS011;2971;52.420;7.080;2023-03-01T06:43:58;18.70;;;13.90;;
5890;SDS011;2971;52.420;7.080;2023-03-01T06:46:24;19.97;;;14.20;;
5890;SDS011;2971;52.420;7.080;2023-03-01T06:48:50;20.73;;;13.93;;
5890;SDS011;2971;52.420;7.080;2023-03-01T06:51:15;19.80;;;12.70;;
5890;SDS011;2971;52.420;7.080;2023-03-01T06:53:40;20.67;;;12.80;;
5890;SDS011;2971;52.420;7.080;2023-03-01T06:56:06;18.10;;;13.53;;
5890;SDS011;2971;52.420;7.080;2023-03-01T06:58:31;20.97;;;13.90;;
5890;SDS011;2971;52.420;7.080;2023-03-01T07:00:57;20.53;;;12.50;;
5890;SDS011;2971;52.420;7.080;2023-03-01T07:03:22;17.90;;;12.90;;
5890;SDS011;2971;52.420;7.080;2023-03-01T07:05:48;20.93;;;13.50;;
5890;SDS011;2971;52.420;7.080;2023-03-01T07:08:14;20.33;;;12.47;;
5890;SDS011;2971;52.420;7.080;2023-03-01T07:10:40;19.73;;;13.03;;
5890;SDS011;2971;52.420;7.080;2023-03-01T07:13:05;22.47;;;13.20;;
5890;SDS011;2971;52.420;7.080;2023-03-01T07:15:31;22.57;;;15.33;;
5890;SDS011;2971;52.420;7.080;2023-03-01T07:17:57;20.20;;;14.27;;
5890;SDS011;2971;52.420;7.080;2023-03-01T07:20:23;21.03;;;14.03;;
5890;SDS011;2971;52.420;7.080;2023-03-01T07:22:50;24.33;;;16.37;;
5890;SDS011;2971;52.420;7.080;2023-03-01T07:25:16;24.53;;;15.63;;
5890;SDS011;2971;52.420;7.080;2023-03-01T07:27:42;23.13;;;17.07;;
5890;SDS011;2971;52.420;7.080;2023-03-01T07:30:07;22.43;;;15.53;;
5890;SDS011;2971;52.420;7.080;2023-03-01T07:32:33;22.50;;;15.50;;
5890;SDS011;2971;52.420;7.080;2023-03-01T07:34:59;23.43;;;15.63;;
5890;SDS011;2971;52.420;7.080;2023-03-01T07:37:24;37.53;;;17.73;;
5890;SDS011;2971;52.420;7.080;2023-03-01T07:39:49;29.70;;;18.23;;
5890;SDS011;2971;52.420;7.080;2023-03-01T07:42:15;28.57;;;18.20;;
5890;SDS011;2971;52.420;7.080;2023-03-01T07:44:40;24.90;;;18.17;;
5890;SDS011;2971;52.420;7.080;2023-03-01T07:47:05;23.13;;;19.43;;
5890;SDS011;2971;52.420;7.080;2023-03-01T07:49:31;23.53;;;18.90;;
5890;SDS011;2971;52.420;7.080;2023-03-01T07:51:56;23.10;;;17.33;;
5890;SDS011;2971;52.420;7.080;2023-03-01T07:54:22;20.10;;;14.93;;
5890;SDS011;2971;52.420;7.080;2023-03-01T07:56:47;17.27;;;14.37;;
5890;SDS011;2971;52.420;7.080;2023-03-01T07:59:13;14.93;;;13.37;;
5890;SDS011;2971;52.420;7.080;2023-03-01T08:01:38;17.00;;;12.80;;
5890;SDS011;2971;52.420;7.080;2023-03-01T08:04:04;12.80;;;11.37;;
5890;SDS011;2971;52.420;7.080;2023-03-01T08:06:33;15.13;;;11.97;;
5890;SDS011;2971;52.420;7.080;2023-03-01T08:08:58;15.43;;;12.97;;
5890;SDS011;2971;52.420;7.080;2023-03-01T08:11:24;14.33;;;12.50;;
5890;SDS011;2971;52.420;7.080;2023-03-01T08:13:49;15.13;;;12.60;;
5890;SDS011;2971;52.420;7.080;2023-03-01T08:16:15;17.03;;;12.93;;
5890;SDS011;2971;52.420;7.080;2023-03-01T08:18:41;12.90;;;11.50;;
5890;SDS011;2971;52.420;7.080;2023-03-01T08:21:08;14.53;;;12.13;;
5890;SDS011;2971;52.420;7.080;2023-03-01T08:23:36;14.57;;;12.30;;
5890;SDS011;2971;52.420;7.080;2023-03-01T08:26:05;14.43;;;11.53;;
5890;SDS011;2971;52.420;7.080;2023-03-01T08:28:33;13.47;;;12.03;;
5890;SDS011;2971;52.420;7.080;2023-03-01T08:30:59;15.10;;;12.30;;
5890;SDS011;2971;52.420;7.080;2023-03-01T08:33:24;18.80;;;15.40;;
5890;SDS011;2971;52.420;7.080;2023-03-01T08:35:50;16.37;;;13.50;;
5890;SDS011;2971;52.420;7.080;2023-03-01T08:38:15;12.30;;;10.97;;
5890;SDS011;2971;52.420;7.080;2023-03-01T08:40:40;14.53;;;11.63;;
5890;SDS011;2971;52.420;7.080;2023-03-01T08:43:06;12.50;;;11.20;;
5890;SDS011;2971;52.420;7.080;2023-03-01T08:45:31;14.50;;;11.90;;
5890;SDS011;2971;52.420;7.080;2023-03-01T08:47:56;12.37;;;10.63;;
5890;SDS011;2971;52.420;7.080;2023-03-01T08:50:22;13.60;;;11.90;;
5890;SDS011;2971;52.420;7.080;2023-03-01T08:52:49;13.37;;;11.43;;
5890;SDS011;2971;52.420;7.080;2023-03-01T08:55:15;12.70;;;10.73;;
5890;SDS011;2971;52.420;7.080;2023-03-01T08:57:42;13.03;;;10.53;;
5890;SDS011;2971;52.420;7.080;2023-03-01T09:00:07;15.27;;;10.83;;
5890;SDS011;2971;52.420;7.080;2023-03-01T09:02:34;11.97;;;10.77;;
5890;SDS011;2971;52.420;7.080;2023-03-01T09:04:59;11.50;;;10.30;;
5890;SDS011;2971;52.420;7.080;2023-03-01T09:07:25;13.27;;;10.30;;
5890;SDS011;2971;52.420;7.080;2023-03-01T09:09:53;11.50;;;10.07;;
5890;SDS011;2971;52.420;7.080;2023-03-01T09:12:19;9.60;;;8.60;;
5890;SDS011;2971;52.420;7.080;2023-03-01T09:14:44;9.73;;;8.73;;
5890;SDS011;2971;52.420;7.080;2023-03-01T09:17:10;11.07;;;9.07;;
5890;SDS011;2971;52.420;7.080;2023-03-01T09:19:35;9.70;;;8.67;;
5890;SDS011;2971;52.420;7.080;2023-03-01T09:22:02;9.50;;;7.97;;
5890;SDS011;2971;52.420;7.080;2023-03-01T09:24:28;10.80;;;8.37;;
5890;SDS011;2971;52.420;7.080;2023-03-01T09:26:54;9.33;;;8.23;;
5890;SDS011;2971;52.420;7.080;2023-03-01T09:29:21;9.40;;;7.70;;
5890;SDS011;2971;52.420;7.080;2023-03-01T09:31:46;9.63;;;8.00;;
5890;SDS011;2971;52.420;7.080;2023-03-01T09:34:11;9.57;;;7.87;;
5890;SDS011;2971;52.420;7.080;2023-03-01T09:36:38;10.07;;;7.37;;
5890;SDS011;2971;52.420;7.080;2023-03-01T09:39:04;8.73;;;7.10;;
5890;SDS011;2971;52.420;7.080;2023-03-01T09:44:21;10.27;;;8.00;;
5890;SDS011;2971;52.420;7.080;2023-03-01T09:47:20;9.20;;;7.53;;
5890;SDS011;2971;52.420;7.080;2023-03-01T09:49:58;8.40;;;7.47;;
5890;SDS011;2971;52.420;7.080;2023-03-01T09:52:33;11.37;;;7.37;;
5890;SDS011;2971;52.420;7.080;2023-03-01T09:55:12;8.47;;;6.93;;
5890;SDS011;2971;52.420;7.080;2023-03-01T09:57:53;8.87;;;7.17;;
5890;SDS011;2971;52.420;7.080;2023-03-01T10:10:38;7.43;;;5.63;;
5890;SDS011;2971;52.420;7.080;2023-03-01T10:13:19;6.33;;;5.60;;
5890;SDS011;2971;52.420;7.080;2023-03-01T10:18:58;7.37;;;6.03;;
5890;SDS011;2971;52.420;7.080;2023-03-01T10:21:26;6.40;;;5.77;;
5890;SDS011;2971;52.420;7.080;2023-03-01T10:23:52;7.53;;;6.13;;
5890;SDS011;2971;52.420;7.080;2023-03-01T10:29:10;22.87;;;16.73;;
5890;SDS011;2971;52.420;7.080;2023-03-01T10:31:41;8.77;;;6.63;;
5890;SDS011;2971;52.420;7.080;2023-03-01T10:34:20;16.27;;;11.70;;
5890;SDS011;2971;52.420;7.080;2023-03-01T10:36:53;15.10;;;10.27;;
5890;SDS011;2971;52.420;7.080;2023-03-01T10:39:22;6.83;;;6.13;;
5890;SDS011;2971;52.420;7.080;2023-03-01T10:42:23;7.10;;;6.00;;
5890;SDS011;2971;52.420;7.080;2023-03-01T10:48:03;8.37;;;5.73;;
5890;SDS011;2971;52.420;7.080;2023-03-01T10:50:31;7.40;;;5.53;;
5890;SDS011;2971;52.420;7.080;2023-03-01T10:53:01;8.50;;;5.93;;
5890;SDS011;2971;52.420;7.080;2023-03-01T11:00:56;7.67;;;5.67;;
5890;SDS011;2971;52.420;7.080;2023-03-01T11:03:27;6.77;;;5.47;;
5890;SDS011;2971;52.420;7.080;2023-03-01T11:08:33;6.80;;;4.83;;
5890;SDS011;2971;52.420;7.080;2023-03-01T11:11:03;6.00;;;4.77;;
5890;SDS011;2971;52.420;7.080;2023-03-01T11:13:38;7.30;;;4.67;;
5890;SDS011;2971;52.420;7.080;2023-03-01T11:16:16;5.63;;;4.77;;
5890;SDS011;2971;52.420;7.080;2023-03-01T11:18:56;6.10;;;5.17;;
5890;SDS011;2971;52.420;7.080;2023-03-01T11:21:22;8.00;;;5.70;;
5890;SDS011;2971;52.420;7.080;2023-03-01T11:23:48;7.40;;;5.30;;
5890;SDS011;2971;52.420;7.080;2023-03-01T11:26:14;5.80;;;4.63;;
5890;SDS011;2971;52.420;7.080;2023-03-01T11:28:40;5.67;;;4.60;;
5890;SDS011;2971;52.420;7.080;2023-03-01T11:31:08;5.77;;;5.13;;
5890;SDS011;2971;52.420;7.080;2023-03-01T11:38:40;7.80;;;5.03;;
5890;SDS011;2971;52.420;7.080;2023-03-01T11:43:50;8.43;;;5.30;;
5890;SDS011;2971;52.420;7.080;2023-03-01T11:51:49;6.47;;;5.00;;
5890;SDS011;2971;52.420;7.080;2023-03-01T12:05:46;5.53;;;4.67;;
5890;SDS011;2971;52.420;7.080;2023-03-01T12:27:37;5.13;;;4.40;;
5890;SDS011;2971;52.420;7.080;2023-03-01T12:48:47;5.47;;;3.23;;
5890;SDS011;2971;52.420;7.080;2023-03-01T12:51:16;5.07;;;3.27;;
5890;SDS011;2971;52.420;7.080;2023-03-01T12:53:48;4.00;;;3.17;;
5890;SDS011;2971;52.420;7.080;2023-03-01T12:56:19;4.23;;;3.20;;
5890;SDS011;2971;52.420;7.080;2023-03-01T12:58:57;6.53;;;3.80;;
5890;SDS011;2971;52.420;7.080;2023-03-01T13:11:51;5.63;;;4.00;;
5890;SDS011;2971;52.420;7.080;2023-03-01T13:16:53;6.20;;;3.23;;
5890;SDS011;2971;52.420;7.080;2023-03-01T13:19:23;4.70;;;3.73;;
5890;SDS011;2971;52.420;7.080;2023-03-01T13:21:50;4.87;;;4.00;;
5890;SDS011;2971;52.420;7.080;2023-03-01T13:29:45;6.20;;;4.33;;
5890;SDS011;2971;52.420;7.080;2023-03-01T13:34:52;5.53;;;4.30;;
5890;SDS011;2971;52.420;7.080;2023-03-01T13:37:20;4.90;;;3.80;;
5890;SDS011;2971;52.420;7.080;2023-03-01T13:39:47;5.80;;;4.03;;
5890;SDS011;2971;52.420;7.080;2023-03-01T13:42:29;6.03;;;3.93;;
5890;SDS011;2971;52.420;7.080;2023-03-01T13:44:55;14.77;;;4.40;;
5890;SDS011;2971;52.420;7.080;2023-03-01T13:47:22;6.60;;;4.40;;
5890;SDS011;2971;52.420;7.080;2023-03-01T13:54:59;5.87;;;4.00;;
5890;SDS011;2971;52.420;7.080;2023-03-01T13:57:29;5.27;;;3.90;;
5890;SDS011;2971;52.420;7.080;2023-03-01T13:59:58;6.03;;;3.97;;
5890;SDS011;2971;52.420;7.080;2023-03-01T14:02:23;5.13;;;4.00;;
5890;SDS011;2971;52.420;7.080;2023-03-01T14:04:58;4.77;;;3.80;;
5890;SDS011;2971;52.420;7.080;2023-03-01T14:07:24;4.87;;;3.57;;
5890;SDS011;2971;52.420;7.080;2023-03-01T14:09:54;4.43;;;3.70;;
5890;SDS011;2971;52.420;7.080;2023-03-01T14:15:20;5.87;;;4.23;;
5890;SDS011;2971;52.420;7.080;2023-03-01T14:20:43;5.20;;;3.90;;
5890;SDS011;2971;52.420;7.080;2023-03-01T14:23:17;6.50;;;4.00;;
5890;SDS011;2971;52.420;7.080;2023-03-01T14:25:57;7.10;;;4.30;;
5890;SDS011;2971;52.420;7.080;2023-03-01T14:30:55;5.77;;;3.70;;
5890;SDS011;2971;52.420;7.080;2023-03-01T14:33:26;4.63;;;3.40;;
5890;SDS011;2971;52.420;7.080;2023-03-01T14:36:02;5.37;;;3.83;;
5890;SDS011;2971;52.420;7.080;2023-03-01T14:41:15;6.27;;;3.90;;
5890;SDS011;2971;52.420;7.080;2023-03-01T14:43:52;4.60;;;3.83;;
5890;SDS011;2971;52.420;7.080;2023-03-01T14:46:35;6.13;;;4.30;;
5890;SDS011;2971;52.420;7.080;2023-03-01T14:51:42;5.20;;;3.83;;
5890;SDS011;2971;52.420;7.080;2023-03-01T14:54:53;4.80;;;3.70;;
5890;SDS011;2971;52.420;7.080;2023-03-01T14:57:02;4.93;;;3.80;;
5890;SDS011;2971;52.420;7.080;2023-03-01T14:59:28;8.37;;;4.07;;
5890;SDS011;2971;52.420;7.080;2023-03-01T15:01:57;6.67;;;3.80;;
5890;SDS011;2971;52.420;7.080;2023-03-01T15:04:23;6.93;;;4.27;;
5890;SDS011;2971;52.420;7.080;2023-03-01T15:06:53;6.37;;;4.37;;
5890;SDS011;2971;52.420;7.080;2023-03-01T15:09:20;4.77;;;4.03;;
5890;SDS011;2971;52.420;7.080;2023-03-01T15:11:45;5.10;;;3.97;;
5890;SDS011;2971;52.420;7.080;2023-03-01T15:16:52;6.30;;;3.90;;
5890;SDS011;2971;52.420;7.080;2023-03-01T15:19:17;5.93;;;4.20;;
5890;SDS011;2971;52.420;7.080;2023-03-01T15:21:44;4.90;;;4.00;;
5890;SDS011;2971;52.420;7.080;2023-03-01T15:26:45;5.50;;;3.77;;
5890;SDS011;2971;52.420;7.080;2023-03-01T15:29:23;6.50;;;4.47;;
5890;SDS011;2971;52.420;7.080;2023-03-01T15:32:01;6.97;;;4.40;;
5890;SDS011;2971;52.420;7.080;2023-03-01T15:34:35;5.90;;;5.13;;
5890;SDS011;2971;52.420;7.080;2023-03-01T15:37:03;6.43;;;5.10;;
5890;SDS011;2971;52.420;7.080;2023-03-01T15:42:02;6.27;;;4.97;;
5890;SDS011;2971;52.420;7.080;2023-03-01T15:44:29;7.30;;;5.50;;
5890;SDS011;2971;52.420;7.080;2023-03-01T15:46:57;6.10;;;4.90;;
5890;SDS011;2971;52.420;7.080;2023-03-01T15:52:11;6.23;;;5.57;;
5890;SDS011;2971;52.420;7.080;2023-03-01T15:54:39;6.90;;;5.20;;
5890;SDS011;2971;52.420;7.080;2023-03-01T15:57:09;6.70;;;5.60;;
5890;SDS011;2971;52.420;7.080;2023-03-01T15:59:38;7.30;;;5.97;;
5890;SDS011;2971;52.420;7.080;2023-03-01T16:02:08;7.53;;;5.93;;
5890;SDS011;2971;52.420;7.080;2023-03-01T16:04:34;10.70;;;6.07;;
5890;SDS011;2971;52.420;7.080;2023-03-01T16:06:59;8.20;;;6.17;;
5890;SDS011;2971;52.420;7.080;2023-03-01T16:09:26;8.27;;;6.27;;
5890;SDS011;2971;52.420;7.080;2023-03-01T16:11:52;11.30;;;6.50;;
5890;SDS011;2971;52.420;7.080;2023-03-01T16:14:18;7.33;;;6.13;;
5890;SDS011;2971;52.420;7.080;2023-03-01T16:16:43;9.07;;;6.27;;
5890;SDS011;2971;52.420;7.080;2023-03-01T16:19:09;7.83;;;6.53;;
5890;SDS011;2971;52.420;7.080;2023-03-01T16:21:35;9.03;;;6.97;;
5890;SDS011;2971;52.420;7.080;2023-03-01T16:24:01;7.97;;;6.53;;
5890;SDS011;2971;52.420;7.080;2023-03-01T16:26:26;9.40;;;7.17;;
5890;SDS011;2971;52.420;7.080;2023-03-01T16:28:54;9.87;;;7.13;;
5890;SDS011;2971;52.420;7.080;2023-03-01T16:31:21;9.60;;;7.13;;
5890;SDS011;2971;52.420;7.080;2023-03-01T16:33:46;8.90;;;6.47;;
5890;SDS011;2971;52.420;7.080;2023-03-01T16:36:14;6.87;;;6.17;;
5890;SDS011;2971;52.420;7.080;2023-03-01T16:38:41;7.27;;;6.50;;
5890;SDS011;2971;52.420;7.080;2023-03-01T16:41:09;8.23;;;6.70;;
5890;SDS011;2971;52.420;7.080;2023-03-01T16:43:37;8.57;;;7.10;;
5890;SDS011;2971;52.420;7.080;2023-03-01T16:46:09;8.10;;;7.30;;
5890;SDS011;2971;52.420;7.080;2023-03-01T16:48:35;9.40;;;7.40;;
5890;SDS011;2971;52.420;7.080;2023-03-01T16:51:01;8.50;;;7.60;;
5890;SDS011;2971;52.420;7.080;2023-03-01T16:53:27;7.57;;;6.67;;
5890;SDS011;2971;52.420;7.080;2023-03-01T16:55:54;9.00;;;7.17;;
5890;SDS011;2971;52.420;7.080;2023-03-01T16:58:22;9.80;;;8.30;;
5890;SDS011;2971;52.420;7.080;2023-03-01T17:00:50;10.60;;;8.47;;
5890;SDS011;2971;52.420;7.080;2023-03-01T17:03:19;9.77;;;8.63;;
5890;SDS011;2971;52.420;7.080;2023-03-01T17:05:45;10.07;;;8.57;;
5890;SDS011;2971;52.420;7.080;2023-03-01T17:08:10;10.00;;;7.63;;
5890;SDS011;2971;52.420;7.080;2023-03-01T17:10:36;9.53;;;8.20;;
5890;SDS011;2971;52.420;7.080;2023-03-01T17:13:01;9.77;;;8.30;;
5890;SDS011;2971;52.420;7.080;2023-03-01T17:15:26;9.03;;;7.90;;
5890;SDS011;2971;52.420;7.080;2023-03-01T17:17:52;8.80;;;7.90;;
5890;SDS011;2971;52.420;7.080;2023-03-01T17:20:17;9.07;;;7.80;;
5890;SDS011;2971;52.420;7.080;2023-03-01T17:22:43;10.80;;;8.43;;
5890;SDS011;2971;52.420;7.080;2023-03-01T17:25:09;10.30;;;9.00;;
5890;SDS011;2971;52.420;7.080;2023-03-01T17:27:36;9.33;;;8.37;;
5890;SDS011;2971;52.420;7.080;2023-03-01T17:30:02;10.30;;;8.73;;
5890;SDS011;2971;52.420;7.080;2023-03-01T17:32:29;9.03;;;8.10;;
5890;SDS011;2971;52.420;7.080;2023-03-01T17:34:54;9.50;;;8.37;;
5890;SDS011;2971;52.420;7.080;2023-03-01T17:37:19;9.90;;;8.07;;